West Glens Falls, New York
Current Conditions -  °F | °C
As of 11:53 AM on Friday 19 Dec 2014 (Local Time) from KGFL Reporting Station
Overcast Overcast  
Wind Chill: 21°   Ceiling: 3500
Heat Index: 31°   Visibility: 10mi
Dew Point: 19°   Wind: 14mph
Humidity: 61%   Direction: 360°N
Pressure: 30.04"   Gusts: NA
Location:  43.3117°N, 73.645°W
Report Text: KGFL 191653Z AUTO 36012KT 10SM OVC035 M01/M07 A3004 RMK AO2 SLP180 T10061072
Loading
Personal Weather Stations






























Interactive Weather Map New forecast layout! Learn more

10-Day Weather Forecast

Advertisements
Track Severe Weather on mobile